sensor_id;sensor_type;location;lat;lon;timestamp;temperature;humidity
25640;DHT22;13497;48.322;16.204;2022-09-27T00:01:23;11.60;99.90
25640;DHT22;13497;48.322;16.204;2022-09-27T00:03:51;11.60;99.90
25640;DHT22;13497;48.322;16.204;2022-09-27T00:06:19;11.60;99.90
25640;DHT22;13497;48.322;16.204;2022-09-27T00:08:46;11.60;99.90
25640;DHT22;13497;48.322;16.204;2022-09-27T00:11:25;11.60;99.90
25640;DHT22;13497;48.322;16.204;2022-09-27T00:13:51;11.50;99.90
25640;DHT22;13497;48.322;16.204;2022-09-27T00:16:17;11.40;99.90
25640;DHT22;13497;48.322;16.204;2022-09-27T00:18:43;11.50;99.90
25640;DHT22;13497;48.322;16.204;2022-09-27T00:21:10;11.50;99.90
25640;DHT22;13497;48.322;16.204;2022-09-27T00:23:36;11.30;99.90
25640;DHT22;13497;48.322;16.204;2022-09-27T00:26:02;11.20;99.90
25640;DHT22;13497;48.322;16.204;2022-09-27T00:28:28;11.20;99.90
25640;DHT22;13497;48.322;16.204;2022-09-27T00:30:53;11.20;99.90
25640;DHT22;13497;48.322;16.204;2022-09-27T00:33:19;11.20;99.90
25640;DHT22;13497;48.322;16.204;2022-09-27T00:35:45;11.20;99.90
25640;DHT22;13497;48.322;16.204;2022-09-27T00:38:11;11.30;99.90
25640;DHT22;13497;48.322;16.204;2022-09-27T00:40:37;11.30;99.90
25640;DHT22;13497;48.322;16.204;2022-09-27T00:43:04;11.30;99.90
25640;DHT22;13497;48.322;16.204;2022-09-27T00:45:35;11.30;99.90
25640;DHT22;13497;48.322;16.204;2022-09-27T00:48:02;11.30;99.90
25640;DHT22;13497;48.322;16.204;2022-09-27T00:50:31;11.30;99.90
25640;DHT22;13497;48.322;16.204;2022-09-27T00:53:01;11.40;99.90
25640;DHT22;13497;48.322;16.204;2022-09-27T00:55:29;11.50;99.90
25640;DHT22;13497;48.322;16.204;2022-09-27T00:57:56;11.50;99.90
25640;DHT22;13497;48.322;16.204;2022-09-27T01:00:22;11.50;99.90
25640;DHT22;13497;48.322;16.204;2022-09-27T01:02:48;11.50;99.90
25640;DHT22;13497;48.322;16.204;2022-09-27T01:05:16;11.60;99.90
25640;DHT22;13497;48.322;16.204;2022-09-27T01:07:42;11.60;99.90
25640;DHT22;13497;48.322;16.204;2022-09-27T01:10:08;11.60;99.90
25640;DHT22;13497;48.322;16.204;2022-09-27T01:28:15;12.00;99.90
25640;DHT22;13497;48.322;16.204;2022-09-27T01:33:30;12.00;99.90
25640;DHT22;13497;48.322;16.204;2022-09-27T01:38:44;11.90;99.90
25640;DHT22;13497;48.322;16.204;2022-09-27T01:43:44;11.90;99.90
25640;DHT22;13497;48.322;16.204;2022-09-27T01:46:11;11.80;99.90
25640;DHT22;13497;48.322;16.204;2022-09-27T01:48:41;11.80;99.90
25640;DHT22;13497;48.322;16.204;2022-09-27T01:51:13;11.70;99.90
25640;DHT22;13497;48.322;16.204;2022-09-27T01:53:45;11.70;99.90
25640;DHT22;13497;48.322;16.204;2022-09-27T01:56:18;11.60;99.90
25640;DHT22;13497;48.322;16.204;2022-09-27T01:58:50;11.50;99.90
25640;DHT22;13497;48.322;16.204;2022-09-27T02:01:17;11.50;99.90
25640;DHT22;13497;48.322;16.204;2022-09-27T02:03:44;11.40;99.90
25640;DHT22;13497;48.322;16.204;2022-09-27T02:06:17;11.50;99.90
25640;DHT22;13497;48.322;16.204;2022-09-27T02:11:12;11.70;99.90
25640;DHT22;13497;48.322;16.204;2022-09-27T02:16:18;11.80;99.90
25640;DHT22;13497;48.322;16.204;2022-09-27T02:21:29;12.00;99.90
25640;DHT22;13497;48.322;16.204;2022-09-27T02:23:57;12.00;99.90
25640;DHT22;13497;48.322;16.204;2022-09-27T02:26:43;12.00;99.90
25640;DHT22;13497;48.322;16.204;2022-09-27T02:29:13;12.10;99.90
25640;DHT22;13497;48.322;16.204;2022-09-27T02:31:39;12.00;99.90
25640;DHT22;13497;48.322;16.204;2022-09-27T02:34:18;12.10;99.90
25640;DHT22;13497;48.322;16.204;2022-09-27T02:36:45;12.10;99.90
25640;DHT22;13497;48.322;16.204;2022-09-27T02:39:10;12.10;99.90
25640;DHT22;13497;48.322;16.204;2022-09-27T02:41:36;12.00;99.90
25640;DHT22;13497;48.322;16.204;2022-09-27T02:44:03;12.00;99.90
25640;DHT22;13497;48.322;16.204;2022-09-27T03:05:01;11.90;99.90
25640;DHT22;13497;48.322;16.204;2022-09-27T03:07:27;12.00;99.90
25640;DHT22;13497;48.322;16.204;2022-09-27T03:09:53;12.10;99.90
25640;DHT22;13497;48.322;16.204;2022-09-27T03:12:19;12.10;99.90
25640;DHT22;13497;48.322;16.204;2022-09-27T03:14:50;12.00;99.90
25640;DHT22;13497;48.322;16.204;2022-09-27T03:17:16;12.00;99.90
25640;DHT22;13497;48.322;16.204;2022-09-27T03:19:42;12.00;99.90
25640;DHT22;13497;48.322;16.204;2022-09-27T03:22:08;12.00;99.90
25640;DHT22;13497;48.322;16.204;2022-09-27T03:24:33;12.00;99.90
25640;DHT22;13497;48.322;16.204;2022-09-27T03:26:59;12.00;99.90
25640;DHT22;13497;48.322;16.204;2022-09-27T03:29:24;12.00;99.90
25640;DHT22;13497;48.322;16.204;2022-09-27T03:31:50;11.90;99.90
25640;DHT22;13497;48.322;16.204;2022-09-27T03:34:15;12.00;99.90
25640;DHT22;13497;48.322;16.204;2022-09-27T03:36:41;12.00;99.90
25640;DHT22;13497;48.322;16.204;2022-09-27T03:39:07;12.00;99.90
25640;DHT22;13497;48.322;16.204;2022-09-27T03:41:33;12.00;99.90
25640;DHT22;13497;48.322;16.204;2022-09-27T03:43:58;11.90;99.90
25640;DHT22;13497;48.322;16.204;2022-09-27T03:46:24;11.90;99.90
25640;DHT22;13497;48.322;16.204;2022-09-27T03:48:50;11.80;99.90
25640;DHT22;13497;48.322;16.204;2022-09-27T03:51:15;11.80;99.90
25640;DHT22;13497;48.322;16.204;2022-09-27T03:53:41;11.90;99.90
25640;DHT22;13497;48.322;16.204;2022-09-27T03:56:07;11.80;99.90
25640;DHT22;13497;48.322;16.204;2022-09-27T03:58:32;11.80;99.90
25640;DHT22;13497;48.322;16.204;2022-09-27T04:00:58;11.70;99.90
25640;DHT22;13497;48.322;16.204;2022-09-27T04:03:24;11.70;99.90
25640;DHT22;13497;48.322;16.204;2022-09-27T04:05:53;11.70;99.90
25640;DHT22;13497;48.322;16.204;2022-09-27T04:08:19;11.70;99.90
25640;DHT22;13497;48.322;16.204;2022-09-27T04:10:46;11.80;99.90
25640;DHT22;13497;48.322;16.204;2022-09-27T04:13:12;11.80;99.90
25640;DHT22;13497;48.322;16.204;2022-09-27T04:15:37;11.80;99.90
25640;DHT22;13497;48.322;16.204;2022-09-27T04:18:06;11.80;99.90
25640;DHT22;13497;48.322;16.204;2022-09-27T04:20:32;11.90;99.90
25640;DHT22;13497;48.322;16.204;2022-09-27T04:22:57;11.90;99.90
25640;DHT22;13497;48.322;16.204;2022-09-27T04:25:23;12.00;99.90
25640;DHT22;13497;48.322;16.204;2022-09-27T04:27:49;12.00;99.90
25640;DHT22;13497;48.322;16.204;2022-09-27T04:30:20;12.00;99.90
25640;DHT22;13497;48.322;16.204;2022-09-27T04:32:46;12.10;99.90
25640;DHT22;13497;48.322;16.204;2022-09-27T04:35:11;12.10;99.90
25640;DHT22;13497;48.322;16.204;2022-09-27T04:37:56;12.10;99.90
25640;DHT22;13497;48.322;16.204;2022-09-27T04:40:22;12.10;99.90
25640;DHT22;13497;48.322;16.204;2022-09-27T04:42:48;12.20;99.90
25640;DHT22;13497;48.322;16.204;2022-09-27T04:45:13;12.20;99.90
25640;DHT22;13497;48.322;16.204;2022-09-27T04:47:46;12.20;99.90
25640;DHT22;13497;48.322;16.204;2022-09-27T04:50:12;12.30;99.90
25640;DHT22;13497;48.322;16.204;2022-09-27T04:52:38;12.30;99.90
25640;DHT22;13497;48.322;16.204;2022-09-27T04:55:05;12.30;99.90
25640;DHT22;13497;48.322;16.204;2022-09-27T04:57:30;12.40;99.90
25640;DHT22;13497;48.322;16.204;2022-09-27T04:59:56;12.40;99.90
25640;DHT22;13497;48.322;16.204;2022-09-27T05:02:23;12.30;99.90
25640;DHT22;13497;48.322;16.204;2022-09-27T05:04:48;12.30;99.90
25640;DHT22;13497;48.322;16.204;2022-09-27T05:07:14;12.30;99.90
25640;DHT22;13497;48.322;16.204;2022-09-27T05:09:39;12.30;99.90
25640;DHT22;13497;48.322;16.204;2022-09-27T05:12:05;12.30;99.90
25640;DHT22;13497;48.322;16.204;2022-09-27T05:14:33;12.30;99.90
25640;DHT22;13497;48.322;16.204;2022-09-27T05:16:58;12.30;99.90
25640;DHT22;13497;48.322;16.204;2022-09-27T05:19:24;12.30;99.90
25640;DHT22;13497;48.322;16.204;2022-09-27T05:21:49;12.40;99.90
25640;DHT22;13497;48.322;16.204;2022-09-27T05:24:15;12.40;99.90
25640;DHT22;13497;48.322;16.204;2022-09-27T05:26:40;12.50;99.90
25640;DHT22;13497;48.322;16.204;2022-09-27T05:29:06;12.50;99.90
25640;DHT22;13497;48.322;16.204;2022-09-27T05:31:31;12.60;99.90
25640;DHT22;13497;48.322;16.204;2022-09-27T05:33:57;12.70;99.90
25640;DHT22;13497;48.322;16.204;2022-09-27T05:36:22;12.70;99.90
25640;DHT22;13497;48.322;16.204;2022-09-27T05:38:48;12.80;99.90
25640;DHT22;13497;48.322;16.204;2022-09-27T05:41:14;12.80;99.90
25640;DHT22;13497;48.322;16.204;2022-09-27T05:43:40;12.90;99.90
25640;DHT22;13497;48.322;16.204;2022-09-27T05:46:05;13.00;99.90
25640;DHT22;13497;48.322;16.204;2022-09-27T05:48:31;13.10;99.90
25640;DHT22;13497;48.322;16.204;2022-09-27T05:50:57;13.10;99.90
25640;DHT22;13497;48.322;16.204;2022-09-27T05:53:23;13.20;99.90
25640;DHT22;13497;48.322;16.204;2022-09-27T05:55:48;13.30;99.90
25640;DHT22;13497;48.322;16.204;2022-09-27T05:58:14;13.30;99.90
25640;DHT22;13497;48.322;16.204;2022-09-27T06:00:40;13.40;99.90
25640;DHT22;13497;48.322;16.204;2022-09-27T06:03:06;13.40;99.90
25640;DHT22;13497;48.322;16.204;2022-09-27T06:05:36;13.40;99.90
25640;DHT22;13497;48.322;16.204;2022-09-27T06:08:03;13.40;99.90
25640;DHT22;13497;48.322;16.204;2022-09-27T06:10:29;13.40;99.90
25640;DHT22;13497;48.322;16.204;2022-09-27T06:12:59;13.40;99.90
25640;DHT22;13497;48.322;16.204;2022-09-27T06:15:27;13.40;99.90
25640;DHT22;13497;48.322;16.204;2022-09-27T06:17:52;13.40;99.90
25640;DHT22;13497;48.322;16.204;2022-09-27T06:20:18;13.40;99.90
25640;DHT22;13497;48.322;16.204;2022-09-27T06:22:45;13.50;99.90
25640;DHT22;13497;48.322;16.204;2022-09-27T06:25:10;13.60;99.90
25640;DHT22;13497;48.322;16.204;2022-09-27T06:27:36;13.70;99.90
25640;DHT22;13497;48.322;16.204;2022-09-27T06:30:02;13.70;99.90
25640;DHT22;13497;48.322;16.204;2022-09-27T06:32:28;13.80;99.90
25640;DHT22;13497;48.322;16.204;2022-09-27T06:34:53;14.00;99.90
25640;DHT22;13497;48.322;16.204;2022-09-27T06:37:19;14.10;99.90
25640;DHT22;13497;48.322;16.204;2022-09-27T06:39:44;14.30;99.90
25640;DHT22;13497;48.322;16.204;2022-09-27T06:42:13;14.40;99.90
25640;DHT22;13497;48.322;16.204;2022-09-27T06:44:38;14.40;99.90
25640;DHT22;13497;48.322;16.204;2022-09-27T06:47:04;14.30;99.90
25640;DHT22;13497;48.322;16.204;2022-09-27T06:49:29;14.30;99.90
25640;DHT22;13497;48.322;16.204;2022-09-27T06:51:55;14.30;99.90
25640;DHT22;13497;48.322;16.204;2022-09-27T06:54:21;14.40;99.90
25640;DHT22;13497;48.322;16.204;2022-09-27T06:56:47;14.40;99.90
25640;DHT22;13497;48.322;16.204;2022-09-27T06:59:12;14.50;99.90
25640;DHT22;13497;48.322;16.204;2022-09-27T07:01:56;14.50;99.90
25640;DHT22;13497;48.322;16.204;2022-09-27T07:04:22;14.60;99.90
25640;DHT22;13497;48.322;16.204;2022-09-27T07:06:48;14.60;99.90
25640;DHT22;13497;48.322;16.204;2022-09-27T07:09:13;14.60;99.90
25640;DHT22;13497;48.322;16.204;2022-09-27T07:11:39;14.60;99.90
25640;DHT22;13497;48.322;16.204;2022-09-27T07:14:08;14.60;99.90
25640;DHT22;13497;48.322;16.204;2022-09-27T07:16:34;14.40;99.90
25640;DHT22;13497;48.322;16.204;2022-09-27T07:19:00;14.50;99.90
25640;DHT22;13497;48.322;16.204;2022-09-27T07:21:26;14.40;99.90
25640;DHT22;13497;48.322;16.204;2022-09-27T07:23:52;14.40;99.90
25640;DHT22;13497;48.322;16.204;2022-09-27T07:26:17;14.40;99.90
25640;DHT22;13497;48.322;16.204;2022-09-27T07:28:43;14.20;99.90
25640;DHT22;13497;48.322;16.204;2022-09-27T07:31:10;14.20;99.90
25640;DHT22;13497;48.322;16.204;2022-09-27T07:33:37;14.20;99.90
25640;DHT22;13497;48.322;16.204;2022-09-27T07:36:07;14.30;99.90
25640;DHT22;13497;48.322;16.204;2022-09-27T07:38:33;14.20;99.90
25640;DHT22;13497;48.322;16.204;2022-09-27T07:41:04;14.10;99.90
25640;DHT22;13497;48.322;16.204;2022-09-27T07:43:29;14.10;99.90
25640;DHT22;13497;48.322;16.204;2022-09-27T07:45:55;14.00;99.90
25640;DHT22;13497;48.322;16.204;2022-09-27T07:48:21;13.90;99.90
25640;DHT22;13497;48.322;16.204;2022-09-27T07:50:46;13.70;99.90
25640;DHT22;13497;48.322;16.204;2022-09-27T07:53:12;13.60;99.90
25640;DHT22;13497;48.322;16.204;2022-09-27T07:55:38;13.50;99.90
25640;DHT22;13497;48.322;16.204;2022-09-27T07:58:05;13.40;99.90
25640;DHT22;13497;48.322;16.204;2022-09-27T08:00:31;13.20;99.90
25640;DHT22;13497;48.322;16.204;2022-09-27T08:02:57;13.20;99.90
25640;DHT22;13497;48.322;16.204;2022-09-27T08:05:22;13.10;99.90
25640;DHT22;13497;48.322;16.204;2022-09-27T08:07:52;13.00;99.90
25640;DHT22;13497;48.322;16.204;2022-09-27T08:10:18;13.00;99.90
25640;DHT22;13497;48.322;16.204;2022-09-27T08:12:43;13.00;99.90
25640;DHT22;13497;48.322;16.204;2022-09-27T08:15:09;12.90;99.90
25640;DHT22;13497;48.322;16.204;2022-09-27T08:17:35;12.90;99.90
25640;DHT22;13497;48.322;16.204;2022-09-27T08:20:00;12.90;99.90
25640;DHT22;13497;48.322;16.204;2022-09-27T08:22:30;12.80;99.90
25640;DHT22;13497;48.322;16.204;2022-09-27T08:24:56;12.90;99.90
25640;DHT22;13497;48.322;16.204;2022-09-27T08:27:21;12.90;99.90
25640;DHT22;13497;48.322;16.204;2022-09-27T08:29:47;12.90;99.90
25640;DHT22;13497;48.322;16.204;2022-09-27T08:32:13;12.90;99.90
25640;DHT22;13497;48.322;16.204;2022-09-27T08:34:38;12.90;99.90
25640;DHT22;13497;48.322;16.204;2022-09-27T08:37:04;12.90;99.90
25640;DHT22;13497;48.322;16.204;2022-09-27T08:39:30;12.90;99.90
25640;DHT22;13497;48.322;16.204;2022-09-27T08:47:10;13.20;99.90
25640;DHT22;13497;48.322;16.204;2022-09-27T08:52:18;13.30;99.90
25640;DHT22;13497;48.322;16.204;2022-09-27T08:54:44;13.30;99.90
25640;DHT22;13497;48.322;16.204;2022-09-27T08:57:10;13.40;99.90
25640;DHT22;13497;48.322;16.204;2022-09-27T08:59:40;13.40;99.90
25640;DHT22;13497;48.322;16.204;2022-09-27T09:02:16;13.40;99.90
25640;DHT22;13497;48.322;16.204;2022-09-27T09:04:43;13.40;99.90
25640;DHT22;13497;48.322;16.204;2022-09-27T09:09:41;13.50;99.90
25640;DHT22;13497;48.322;16.204;2022-09-27T09:12:13;13.60;99.90
25640;DHT22;13497;48.322;16.204;2022-09-27T09:25:12;13.90;99.90
25640;DHT22;13497;48.322;16.204;2022-09-27T09:30:22;14.10;99.90
25640;DHT22;13497;48.322;16.204;2022-09-27T09:35:24;14.20;99.90
25640;DHT22;13497;48.322;16.204;2022-09-27T09:37:56;14.20;99.90
25640;DHT22;13497;48.322;16.204;2022-09-27T09:43:02;14.30;99.90
25640;DHT22;13497;48.322;16.204;2022-09-27T09:45:29;14.30;99.90
25640;DHT22;13497;48.322;16.204;2022-09-27T09:50:28;14.40;99.90
25640;DHT22;13497;48.322;16.204;2022-09-27T09:52:56;14.50;99.90
25640;DHT22;13497;48.322;16.204;2022-09-27T09:55:27;14.60;99.90
25640;DHT22;13497;48.322;16.204;2022-09-27T09:58:02;14.80;99.90
25640;DHT22;13497;48.322;16.204;2022-09-27T10:00:30;14.90;99.90
25640;DHT22;13497;48.322;16.204;2022-09-27T10:02:57;15.00;99.90
25640;DHT22;13497;48.322;16.204;2022-09-27T10:05:24;15.00;99.90
25640;DHT22;13497;48.322;16.204;2022-09-27T10:07:50;14.90;99.90
25640;DHT22;13497;48.322;16.204;2022-09-27T10:10:16;15.00;99.90
25640;DHT22;13497;48.322;16.204;2022-09-27T10:12:43;15.00;99.90
25640;DHT22;13497;48.322;16.204;2022-09-27T10:15:13;15.10;99.90
25640;DHT22;13497;48.322;16.204;2022-09-27T10:17:40;15.20;99.90
25640;DHT22;13497;48.322;16.204;2022-09-27T10:20:06;15.30;99.90
25640;DHT22;13497;48.322;16.204;2022-09-27T10:22:39;15.40;99.90
25640;DHT22;13497;48.322;16.204;2022-09-27T10:25:07;15.40;99.90
25640;DHT22;13497;48.322;16.204;2022-09-27T10:27:37;15.40;99.90
25640;DHT22;13497;48.322;16.204;2022-09-27T10:30:04;15.50;99.90
25640;DHT22;13497;48.322;16.204;2022-09-27T10:32:30;15.50;99.90
25640;DHT22;13497;48.322;16.204;2022-09-27T10:37:41;15.40;99.90
25640;DHT22;13497;48.322;16.204;2022-09-27T10:40:24;15.40;99.90
25640;DHT22;13497;48.322;16.204;2022-09-27T10:42:49;15.30;99.90
25640;DHT22;13497;48.322;16.204;2022-09-27T10:47:46;15.30;99.90
25640;DHT22;13497;48.322;16.204;2022-09-27T10:50:17;15.40;99.90
25640;DHT22;13497;48.322;16.204;2022-09-27T10:52:46;15.50;99.90
25640;DHT22;13497;48.322;16.204;2022-09-27T10:55:22;15.70;99.90
25640;DHT22;13497;48.322;16.204;2022-09-27T10:57:48;15.50;99.90
25640;DHT22;13497;48.322;16.204;2022-09-27T11:00:22;15.50;99.90
25640;DHT22;13497;48.322;16.204;2022-09-27T11:02:52;15.50;99.90
25640;DHT22;13497;48.322;16.204;2022-09-27T11:07:53;15.60;99.90
25640;DHT22;13497;48.322;16.204;2022-09-27T11:10:27;15.80;99.90
25640;DHT22;13497;48.322;16.204;2022-09-27T11:15:41;16.10;99.90
25640;DHT22;13497;48.322;16.204;2022-09-27T11:18:22;16.30;99.90
25640;DHT22;13497;48.322;16.204;2022-09-27T11:20:55;16.20;99.90
25640;DHT22;13497;48.322;16.204;2022-09-27T11:23:33;16.10;99.90
25640;DHT22;13497;48.322;16.204;2022-09-27T11:28:57;16.00;99.90
25640;DHT22;13497;48.322;16.204;2022-09-27T11:39:20;15.90;99.90
25640;DHT22;13497;48.322;16.204;2022-09-27T11:47:36;16.20;99.90
25640;DHT22;13497;48.322;16.204;2022-09-27T11:49:58;16.30;99.90
25640;DHT22;13497;48.322;16.204;2022-09-27T11:52:41;16.30;99.90
25640;DHT22;13497;48.322;16.204;2022-09-27T11:55:19;16.20;99.90
25640;DHT22;13497;48.322;16.204;2022-09-27T11:58:34;16.00;99.90
25640;DHT22;13497;48.322;16.204;2022-09-27T12:00:37;15.90;99.90
25640;DHT22;13497;48.322;16.204;2022-09-27T12:11:08;15.60;99.90
25640;DHT22;13497;48.322;16.204;2022-09-27T12:13:48;15.70;99.90
25640;DHT22;13497;48.322;16.204;2022-09-27T12:16:15;15.70;99.90
25640;DHT22;13497;48.322;16.204;2022-09-27T12:18:41;15.50;99.90
25640;DHT22;13497;48.322;16.204;2022-09-27T12:21:08;15.50;99.90
25640;DHT22;13497;48.322;16.204;2022-09-27T12:26:10;15.30;99.90
25640;DHT22;13497;48.322;16.204;2022-09-27T12:28:53;15.20;99.90
25640;DHT22;13497;48.322;16.204;2022-09-27T12:36:15;15.20;99.90
25640;DHT22;13497;48.322;16.204;2022-09-27T12:38:52;15.20;99.90
25640;DHT22;13497;48.322;16.204;2022-09-27T12:41:21;15.10;99.90
25640;DHT22;13497;48.322;16.204;2022-09-27T12:43:47;15.10;99.90
25640;DHT22;13497;48.322;16.204;2022-09-27T12:48:54;15.10;99.90
25640;DHT22;13497;48.322;16.204;2022-09-27T12:51:31;15.10;99.90
25640;DHT22;13497;48.322;16.204;2022-09-27T13:04:47;15.60;99.90
25640;DHT22;13497;48.322;16.204;2022-09-27T13:12:48;15.60;99.90
25640;DHT22;13497;48.322;16.204;2022-09-27T13:15:18;15.40;99.90
25640;DHT22;13497;48.322;16.204;2022-09-27T13:17:48;15.30;99.90
25640;DHT22;13497;48.322;16.204;2022-09-27T13:22:56;15.40;99.90
25640;DHT22;13497;48.322;16.204;2022-09-27T13:31:08;15.40;99.90
25640;DHT22;13497;48.322;16.204;2022-09-27T13:33:43;15.50;99.90
25640;DHT22;13497;48.322;16.204;2022-09-27T13:41:36;15.40;99.90
25640;DHT22;13497;48.322;16.204;2022-09-27T13:46:49;15.20;99.90
25640;DHT22;13497;48.322;16.204;2022-09-27T13:51:45;15.30;99.90
25640;DHT22;13497;48.322;16.204;2022-09-27T13:56:57;15.40;99.90
25640;DHT22;13497;48.322;16.204;2022-09-27T13:59:41;15.40;99.90
25640;DHT22;13497;48.322;16.204;2022-09-27T14:04:45;15.30;99.90
25640;DHT22;13497;48.322;16.204;2022-09-27T14:07:13;15.20;99.90
25640;DHT22;13497;48.322;16.204;2022-09-27T14:09:40;15.10;99.90
25640;DHT22;13497;48.322;16.204;2022-09-27T14:12:15;15.20;99.90
25640;DHT22;13497;48.322;16.204;2022-09-27T14:14:43;15.10;99.90
25640;DHT22;13497;48.322;16.204;2022-09-27T14:17:09;15.00;99.90
25640;DHT22;13497;48.322;16.204;2022-09-27T14:19:40;15.00;99.90
25640;DHT22;13497;48.322;16.204;2022-09-27T14:22:13;14.90;99.90
25640;DHT22;13497;48.322;16.204;2022-09-27T14:29:40;14.90;99.90
25640;DHT22;13497;48.322;16.204;2022-09-27T14:32:11;14.80;99.90
25640;DHT22;13497;48.322;16.204;2022-09-27T14:34:36;14.90;99.90
25640;DHT22;13497;48.322;16.204;2022-09-27T14:37:03;15.00;99.90
25640;DHT22;13497;48.322;16.204;2022-09-27T14:39:55;14.90;99.90
25640;DHT22;13497;48.322;16.204;2022-09-27T14:42:22;14.70;99.90
25640;DHT22;13497;48.322;16.204;2022-09-27T14:44:49;14.70;99.90
25640;DHT22;13497;48.322;16.204;2022-09-27T14:47:22;14.70;99.90
25640;DHT22;13497;48.322;16.204;2022-09-27T14:49:48;14.60;99.90
25640;DHT22;13497;48.322;16.204;2022-09-27T14:52:15;14.70;99.90
25640;DHT22;13497;48.322;16.204;2022-09-27T14:54:42;14.60;99.90
25640;DHT22;13497;48.322;16.204;2022-09-27T14:57:08;14.60;99.90
25640;DHT22;13497;48.322;16.204;2022-09-27T14:59:34;14.60;99.90
25640;DHT22;13497;48.322;16.204;2022-09-27T15:02:03;14.60;99.90
25640;DHT22;13497;48.322;16.204;2022-09-27T15:04:41;14.50;99.90
25640;DHT22;13497;48.322;16.204;2022-09-27T15:07:08;14.60;99.90
25640;DHT22;13497;48.322;16.204;2022-09-27T15:09:33;14.60;99.90
25640;DHT22;13497;48.322;16.204;2022-09-27T15:11:59;14.60;99.90
25640;DHT22;13497;48.322;16.204;2022-09-27T15:14:25;14.60;99.90
25640;DHT22;13497;48.322;16.204;2022-09-27T15:16:53;14.50;99.90
25640;DHT22;13497;48.322;16.204;2022-09-27T15:19:23;14.50;99.90
25640;DHT22;13497;48.322;16.204;2022-09-27T15:21:49;14.60;99.90
25640;DHT22;13497;48.322;16.204;2022-09-27T15:26:59;14.40;99.90
25640;DHT22;13497;48.322;16.204;2022-09-27T15:29:25;14.40;99.90
25640;DHT22;13497;48.322;16.204;2022-09-27T15:31:57;14.30;99.90
25640;DHT22;13497;48.322;16.204;2022-09-27T15:34:24;14.30;99.90
25640;DHT22;13497;48.322;16.204;2022-09-27T15:36:55;14.30;99.90
25640;DHT22;13497;48.322;16.204;2022-09-27T15:39:31;14.40;99.90
25640;DHT22;13497;48.322;16.204;2022-09-27T15:42:07;14.30;99.90
25640;DHT22;13497;48.322;16.204;2022-09-27T15:44:35;14.30;99.90
25640;DHT22;13497;48.322;16.204;2022-09-27T15:47:01;14.20;99.90
25640;DHT22;13497;48.322;16.204;2022-09-27T15:49:30;14.20;99.90
25640;DHT22;13497;48.322;16.204;2022-09-27T15:51:58;14.10;99.90
25640;DHT22;13497;48.322;16.204;2022-09-27T15:54:25;14.00;99.90
25640;DHT22;13497;48.322;16.204;2022-09-27T15:56:51;13.90;99.90
25640;DHT22;13497;48.322;16.204;2022-09-27T15:59:27;13.90;99.90
25640;DHT22;13497;48.322;16.204;2022-09-27T16:01:57;13.80;99.90
25640;DHT22;13497;48.322;16.204;2022-09-27T16:04:23;13.80;99.90
25640;DHT22;13497;48.322;16.204;2022-09-27T16:06:49;13.80;99.90
25640;DHT22;13497;48.322;16.204;2022-09-27T16:09:18;13.70;99.90
25640;DHT22;13497;48.322;16.204;2022-09-27T16:11:45;13.60;99.90
25640;DHT22;13497;48.322;16.204;2022-09-27T16:14:11;13.60;99.90
25640;DHT22;13497;48.322;16.204;2022-09-27T16:16:41;13.60;99.90
25640;DHT22;13497;48.322;16.204;2022-09-27T16:19:08;13.60;99.90
25640;DHT22;13497;48.322;16.204;2022-09-27T16:21:34;13.60;99.90
25640;DHT22;13497;48.322;16.204;2022-09-27T16:23:59;13.60;99.90
25640;DHT22;13497;48.322;16.204;2022-09-27T16:26:25;13.50;99.90
25640;DHT22;13497;48.322;16.204;2022-09-27T16:28:50;13.50;99.90
25640;DHT22;13497;48.322;16.204;2022-09-27T16:31:17;13.50;99.90
25640;DHT22;13497;48.322;16.204;2022-09-27T16:33:43;13.50;99.90
25640;DHT22;13497;48.322;16.204;2022-09-27T16:36:08;13.50;99.90
25640;DHT22;13497;48.322;16.204;2022-09-27T16:38:39;13.50;99.90
25640;DHT22;13497;48.322;16.204;2022-09-27T16:41:05;13.50;99.90
25640;DHT22;13497;48.322;16.204;2022-09-27T16:43:30;13.40;99.90
25640;DHT22;13497;48.322;16.204;2022-09-27T16:46:02;13.30;99.90
25640;DHT22;13497;48.322;16.204;2022-09-27T16:48:28;13.20;99.90
25640;DHT22;13497;48.322;16.204;2022-09-27T16:50:53;13.00;99.90
25640;DHT22;13497;48.322;16.204;2022-09-27T16:53:37;12.90;99.90
25640;DHT22;13497;48.322;16.204;2022-09-27T16:56:03;12.80;99.90
25640;DHT22;13497;48.322;16.204;2022-09-27T16:58:28;12.80;99.90
25640;DHT22;13497;48.322;16.204;2022-09-27T17:00:57;12.70;99.90
25640;DHT22;13497;48.322;16.204;2022-09-27T17:03:23;12.70;99.90
25640;DHT22;13497;48.322;16.204;2022-09-27T17:05:48;12.70;99.90
25640;DHT22;13497;48.322;16.204;2022-09-27T17:08:14;12.70;99.90
25640;DHT22;13497;48.322;16.204;2022-09-27T17:10:42;12.70;99.90
25640;DHT22;13497;48.322;16.204;2022-09-27T17:13:09;12.60;99.90
25640;DHT22;13497;48.322;16.204;2022-09-27T17:15:35;12.60;99.90
25640;DHT22;13497;48.322;16.204;2022-09-27T17:18:00;12.60;99.90
25640;DHT22;13497;48.322;16.204;2022-09-27T17:20:27;12.50;99.90
25640;DHT22;13497;48.322;16.204;2022-09-27T17:22:53;12.50;99.90
25640;DHT22;13497;48.322;16.204;2022-09-27T17:25:18;12.50;99.90
25640;DHT22;13497;48.322;16.204;2022-09-27T17:27:43;12.50;99.90
25640;DHT22;13497;48.322;16.204;2022-09-27T17:30:09;12.50;99.90
25640;DHT22;13497;48.322;16.204;2022-09-27T17:32:35;12.40;99.90
25640;DHT22;13497;48.322;16.204;2022-09-27T17:35:02;12.40;99.90
25640;DHT22;13497;48.322;16.204;2022-09-27T17:37:27;12.40;99.90
25640;DHT22;13497;48.322;16.204;2022-09-27T17:39:53;12.40;99.90
25640;DHT22;13497;48.322;16.204;2022-09-27T17:42:18;12.40;99.90
25640;DHT22;13497;48.322;16.204;2022-09-27T17:44:44;12.40;99.90
25640;DHT22;13497;48.322;16.204;2022-09-27T17:47:10;12.40;99.90
25640;DHT22;13497;48.322;16.204;2022-09-27T17:49:54;12.40;99.90
25640;DHT22;13497;48.322;16.204;2022-09-27T17:52:38;12.30;99.90
25640;DHT22;13497;48.322;16.204;2022-09-27T17:55:04;12.30;99.90
25640;DHT22;13497;48.322;16.204;2022-09-27T17:57:30;12.20;99.90
25640;DHT22;13497;48.322;16.204;2022-09-27T17:59:56;12.20;99.90
25640;DHT22;13497;48.322;16.204;2022-09-27T18:02:22;12.10;99.90
25640;DHT22;13497;48.322;16.204;2022-09-27T18:04:47;12.10;99.90
25640;DHT22;13497;48.322;16.204;2022-09-27T18:07:13;12.00;99.90
25640;DHT22;13497;48.322;16.204;2022-09-27T18:09:38;12.00;99.90
25640;DHT22;13497;48.322;16.204;2022-09-27T18:12:04;12.00;99.90
25640;DHT22;13497;48.322;16.204;2022-09-27T18:14:30;11.90;99.90